This is the latest recevied weather packets stored in our database for station/object OE-11307. If no packets are shown the sender has not sent any weather packets the latest 10 day(s).
| Time | Temp. | Humidity | Pressure | Rain* | Wind** | Luminosity | Snow |
|---|---|---|---|---|---|---|---|
| 1787828114 | 26.11° C | 46% | 853.2 hPa | 0 mm | - | 737 W/m² | - |
| 1787827286 | 25.56° C | 46% | 853.2 hPa | 0 mm | - | 554 W/m² | - |
| 1787826913 | 25.56° C | 47% | 853.3 hPa | 0 mm | - | 624 W/m² | - |
| 1787826314 | 25° C | 49% | 853.3 hPa | 0 mm | - | 567 W/m² | - |
| 1787825487 | 25° C | 47% | 853.3 hPa | 0 mm | - | 529 W/m² | - |
| 1787825114 | 25° C | 47% | 853.3 hPa | 0 mm | - | 674 W/m² | - |
| 1787824514 | 24.44° C | 50% | 853.5 hPa | 0 mm | - | 668 W/m² | - |
| 1787823687 | 24.44° C | 53% | 853.5 hPa | 0 mm | - | 668 W/m² | - |
| 1787823314 | 23.89° C | 54% | 853.4 hPa | 0 mm | - | 643 W/m² | - |
| 1787822713 | 23.89° C | 51% | 853.5 hPa | 0 mm | - | 617 W/m² | - |
| 1787821887 | 23.33° C | 52% | 853.6 hPa | 0 mm | - | 599 W/m² | - |
| 1787821513 | 23.33° C | 54% | 853.5 hPa | 0 mm | - | 580 W/m² | - |
| 1787820914 | 22.78° C | 54% | 853.4 hPa | 0 mm | - | 561 W/m² | - |
| 1787820087 | 21.11° C | 60% | 853.3 hPa | 0 mm | - | 536 W/m² | - |
| 1787819714 | 21.67° C | 59% | 853.2 hPa | 0 mm | - | 517 W/m² | - |
| 1787819114 | 21.11° C | 59% | 853.2 hPa | 0 mm | - | 491 W/m² | - |
| 1787818287 | 21.67° C | 55% | 853.4 hPa | 0 mm | - | 460 W/m² | - |
| 1787817913 | 21.67° C | 52% | 853.2 hPa | 0 mm | - | 403 W/m² | - |
| 1787817313 | 21.11° C | 53% | 853.2 hPa | 0 mm | - | 328 W/m² | - |
| 1787816486 | 21.11° C | 54% | 853.1 hPa | 0 mm | - | 328 W/m² | - |
| 1787816113 | 20.56° C | 54% | 852.9 hPa | 0 mm | - | 334 W/m² | - |
| 1787815511 | 20.56° C | 54% | 852.9 hPa | 0 mm | - | 353 W/m² | - |
| 1787814687 | 20° C | 56% | 852.8 hPa | 0 mm | - | 252 W/m² | - |
| 1787814314 | 20° C | 53% | 853 hPa | 0 mm | - | 189 W/m² | - |
| 1787813714 | 19.44° C | 58% | 852.8 hPa | 0 mm | - | 126 W/m² | - |
* Rain latest hour (hover to see other rain measurements)
** Current wind speed in m/s (hover to see current wind gust speed)